createdAt,value
2019-05-22T00:01:52.244Z,17.66
2019-05-22T00:04:27.536Z,17.62
2019-05-22T00:07:03.588Z,17.63
2019-05-22T00:09:38.157Z,17.52
2019-05-22T00:12:17.604Z,17.55
2019-05-22T00:14:50.644Z,17.44
2019-05-22T00:17:32.321Z,17.33
2019-05-22T00:20:06.708Z,17.37
2019-05-22T00:22:41.442Z,17.32
2019-05-22T00:25:20.969Z,17.33
2019-05-22T00:27:54.726Z,17.32
2019-05-22T00:30:27.502Z,17.29
2019-05-22T00:33:01.348Z,17.22
2019-05-22T00:35:33.840Z,17.24
2019-05-22T00:38:08.467Z,17.25
2019-05-22T00:40:51.679Z,17.23
2019-05-22T00:43:38.004Z,17.28
2019-05-22T00:46:12.391Z,17.26
2019-05-22T00:48:46.275Z,17.35
2019-05-22T00:51:53.546Z,17.30
2019-05-22T00:54:52.280Z,17.31
2019-05-22T00:57:47.368Z,17.30
2019-05-22T01:00:24.556Z,17.22
2019-05-22T01:02:57.371Z,17.31
2019-05-22T01:05:31.191Z,17.38
2019-05-22T01:08:06.477Z,17.25
2019-05-22T01:10:40.124Z,17.30
2019-05-22T01:13:13.994Z,17.30
2019-05-22T01:15:46.828Z,17.31
2019-05-22T01:18:19.042Z,17.28
2019-05-22T01:20:53.263Z,17.26
2019-05-22T01:23:25.699Z,17.29
2019-05-22T01:25:57.712Z,17.28
2019-05-22T01:28:30.361Z,17.36
2019-05-22T01:31:21.355Z,17.31
2019-05-22T01:34:08.439Z,17.24
2019-05-22T01:36:45.585Z,17.29
2019-05-22T01:39:50.197Z,17.33
2019-05-22T01:42:33.316Z,17.29
2019-05-22T01:45:08.090Z,17.27
2019-05-22T01:48:06.043Z,17.31
2019-05-22T01:50:53.571Z,17.29
2019-05-22T01:53:37.756Z,17.22
2019-05-22T01:56:12.842Z,17.21
2019-05-22T01:58:45.639Z,17.33
2019-05-22T02:01:20.973Z,17.28
2019-05-22T02:03:56.767Z,17.31
2019-05-22T02:06:30.192Z,17.33
2019-05-22T02:09:30.914Z,17.28
2019-05-22T02:12:18.599Z,17.23
2019-05-22T02:14:53.791Z,17.21
2019-05-22T02:17:33.280Z,17.16
2019-05-22T02:20:08.967Z,17.16
2019-05-22T02:22:42.472Z,17.08
2019-05-22T02:25:15.734Z,17.06
2019-05-22T02:27:47.989Z,16.99
2019-05-22T02:30:23.345Z,16.93
2019-05-22T02:32:55.374Z,16.91
2019-05-22T02:35:26.826Z,16.84
2019-05-22T02:37:58.886Z,16.79
2019-05-22T02:40:35.249Z,16.85
2019-05-22T02:43:09.433Z,16.77
2019-05-22T02:45:42.213Z,16.70
2019-05-22T02:48:15.659Z,16.69
2019-05-22T02:50:48.853Z,16.67
2019-05-22T02:53:21.931Z,16.59
2019-05-22T02:55:53.866Z,16.55
2019-05-22T02:58:27.686Z,16.53
2019-05-22T03:01:05.932Z,16.45
2019-05-22T03:03:38.783Z,16.39
2019-05-22T03:06:13.902Z,16.30
2019-05-22T03:09:13.858Z,16.21
2019-05-22T03:11:59.373Z,16.23
2019-05-22T03:14:33.046Z,16.23
2019-05-22T03:17:09.777Z,16.15
2019-05-22T03:19:45.465Z,16.06
2019-05-22T03:22:31.230Z,15.98
2019-05-22T03:25:09.485Z,15.96
2019-05-22T03:27:45.393Z,15.89
2019-05-22T03:30:30.429Z,15.91
2019-05-22T03:33:06.107Z,15.87
2019-05-22T03:35:50.721Z,15.85
2019-05-22T03:38:23.218Z,15.85
2019-05-22T03:40:54.738Z,15.89
2019-05-22T03:43:29.746Z,15.87
2019-05-22T03:46:06.597Z,15.88
2019-05-22T03:48:38.981Z,15.84
2019-05-22T03:51:15.116Z,15.80
2019-05-22T03:53:48.606Z,15.73
2019-05-22T03:56:22.392Z,15.73
2019-05-22T03:58:55.379Z,15.77
2019-05-22T04:01:26.751Z,15.71
2019-05-22T04:03:59.712Z,15.68
2019-05-22T04:06:33.106Z,15.71
2019-05-22T04:09:26.941Z,15.72
2019-05-22T04:11:59.167Z,15.79
2019-05-22T04:14:40.283Z,15.78
2019-05-22T04:17:15.161Z,15.76
2019-05-22T04:19:51.592Z,15.84
2019-05-22T04:22:24.573Z,15.88
2019-05-22T04:24:56.730Z,15.93
2019-05-22T04:27:30.071Z,15.90
2019-05-22T04:30:04.332Z,15.87
2019-05-22T04:32:37.537Z,15.89
2019-05-22T04:35:22.482Z,15.85
2019-05-22T04:37:57.097Z,15.78
2019-05-22T04:40:56.917Z,15.74
2019-05-22T04:43:34.194Z,15.70
2019-05-22T04:46:09.836Z,15.64
2019-05-22T04:48:45.868Z,15.60
2019-05-22T04:51:32.700Z,15.57
2019-05-22T04:54:04.752Z,15.50
2019-05-22T04:56:37.419Z,15.49
2019-05-22T04:59:10.064Z,15.41
2019-05-22T05:01:42.326Z,15.43
2019-05-22T05:04:15.156Z,15.46
2019-05-22T05:06:47.070Z,15.43
2019-05-22T05:09:18.939Z,15.48
2019-05-22T05:11:53.491Z,15.44
2019-05-22T05:14:25.437Z,15.35
2019-05-22T05:16:58.505Z,15.46
2019-05-22T05:19:30.541Z,15.40
2019-05-22T05:22:02.334Z,15.30
2019-05-22T05:24:33.697Z,15.25
2019-05-22T05:27:07.285Z,15.16
2019-05-22T05:29:39.278Z,15.15
2019-05-22T05:32:10.956Z,15.29
2019-05-22T05:35:02.767Z,15.37
2019-05-22T05:37:34.950Z,15.37
2019-05-22T05:40:39.831Z,15.41
2019-05-22T05:43:18.919Z,15.35
2019-05-22T05:45:52.097Z,15.39
2019-05-22T05:48:25.947Z,15.30
2019-05-22T05:51:25.696Z,15.31
2019-05-22T05:54:23.415Z,15.25
2019-05-22T05:57:00.072Z,15.26
2019-05-22T05:59:31.589Z,15.28
2019-05-22T06:02:06.511Z,15.29
2019-05-22T06:04:40.547Z,15.19
2019-05-22T06:07:26.867Z,15.18
2019-05-22T06:10:42.620Z,15.18
2019-05-22T06:13:14.597Z,15.17
2019-05-22T06:17:07.577Z,15.14
2019-05-22T06:19:45.488Z,15.08
2019-05-22T06:22:19.284Z,15.04
2019-05-22T06:25:04.682Z,15.13
2019-05-22T06:27:53.433Z,15.12
2019-05-22T06:30:46.376Z,15.09
2019-05-22T06:33:46.082Z,15.03
2019-05-22T06:36:19.449Z,15.09
2019-05-22T06:39:17.327Z,15.05
2019-05-22T06:41:49.885Z,14.95
2019-05-22T06:44:35.237Z,14.98
2019-05-22T06:47:10.653Z,14.83
2019-05-22T06:49:45.520Z,14.82
2019-05-22T06:52:17.965Z,14.80
2019-05-22T06:54:50.754Z,14.91
2019-05-22T06:57:25.821Z,14.82
2019-05-22T07:00:13.120Z,14.89
2019-05-22T07:02:36.532Z,14.85
2019-05-22T07:05:13.131Z,14.85
2019-05-22T07:07:45.574Z,14.86
2019-05-22T07:10:17.703Z,14.85
2019-05-22T07:12:51.132Z,14.84
2019-05-22T07:15:46.904Z,14.78
2019-05-22T07:18:20.889Z,14.67
2019-05-22T07:20:54.792Z,14.71
2019-05-22T07:23:30.582Z,14.62
2019-05-22T07:26:03.450Z,14.61
2019-05-22T07:28:36.719Z,14.55
2019-05-22T07:31:08.785Z,14.43
2019-05-22T07:33:40.995Z,14.38
2019-05-22T07:36:17.157Z,14.26
2019-05-22T07:38:48.649Z,14.29
2019-05-22T07:41:20.540Z,14.31
2019-05-22T07:43:52.479Z,14.32
2019-05-22T07:46:25.533Z,14.29
2019-05-22T07:48:58.878Z,14.34
2019-05-22T07:51:31.424Z,14.43
2019-05-22T07:54:04.237Z,14.34
2019-05-22T07:56:37.492Z,14.28
2019-05-22T07:59:09.453Z,14.31
2019-05-22T08:01:41.711Z,14.31
2019-05-22T08:04:16.995Z,14.32
2019-05-22T08:06:48.976Z,14.28
2019-05-22T08:09:23.888Z,14.29
2019-05-22T08:11:56.134Z,14.26
2019-05-22T08:14:30.070Z,14.23
2019-05-22T08:17:04.132Z,14.05
2019-05-22T08:19:36.057Z,14.14
2019-05-22T08:22:08.192Z,14.10
2019-05-22T08:24:41.504Z,14.01
2019-05-22T08:27:14.383Z,14.07
2019-05-22T08:29:47.173Z,14.08
2019-05-22T08:32:20.475Z,14.00
2019-05-22T08:34:52.687Z,14.02
2019-05-22T08:37:31.568Z,14.08
2019-05-22T08:40:04.696Z,13.85
2019-05-22T08:42:38.024Z,13.86
2019-05-22T08:45:10.403Z,13.87
2019-05-22T08:47:42.754Z,13.79
2019-05-22T08:50:16.842Z,13.82
2019-05-22T08:52:50.592Z,13.83
2019-05-22T08:55:23.604Z,13.78
2019-05-22T08:57:56.608Z,13.86
2019-05-22T09:00:30.387Z,13.91
2019-05-22T09:03:02.392Z,13.92
2019-05-22T09:05:34.410Z,14.01
2019-05-22T09:08:06.565Z,13.96
2019-05-22T09:10:38.494Z,13.92
2019-05-22T09:13:10.435Z,13.88
2019-05-22T09:15:42.528Z,13.93
2019-05-22T09:18:55.853Z,13.94
2019-05-22T09:21:47.836Z,14.13
2019-05-22T09:24:44.764Z,13.95
2019-05-22T09:27:06.841Z,14.01
2019-05-22T09:29:41.100Z,14.11
2019-05-22T09:32:16.556Z,14.17
2019-05-22T09:35:03.897Z,14.24
2019-05-22T09:37:47.146Z,14.19
2019-05-22T09:40:40.577Z,14.19
2019-05-22T09:43:18.609Z,13.93
2019-05-22T09:46:13.132Z,13.83
2019-05-22T09:48:49.533Z,13.92
2019-05-22T09:51:21.640Z,14.00
2019-05-22T09:53:53.963Z,13.98
2019-05-22T09:56:26.849Z,14.04
2019-05-22T09:58:59.031Z,13.91
2019-05-22T10:01:33.818Z,13.97
2019-05-22T10:04:06.231Z,14.04
2019-05-22T10:06:38.886Z,13.97
2019-05-22T10:09:50.604Z,13.82
2019-05-22T10:12:39.815Z,13.86
2019-05-22T10:15:13.104Z,13.82
2019-05-22T10:17:58.085Z,13.81
2019-05-22T10:20:32.368Z,13.81
2019-05-22T10:23:15.393Z,13.90
2019-05-22T10:25:40.672Z,13.88
2019-05-22T10:28:13.571Z,13.82
2019-05-22T10:30:46.385Z,13.85
2019-05-22T10:33:18.203Z,13.85
2019-05-22T10:35:50.140Z,13.89
2019-05-22T10:38:23.022Z,13.96
2019-05-22T10:40:58.537Z,13.87
2019-05-22T10:43:29.108Z,13.82
2019-05-22T10:46:03.385Z,13.81
2019-05-22T10:48:35.269Z,13.89
2019-05-22T10:51:07.294Z,14.12
2019-05-22T10:53:40.075Z,14.13
2019-05-22T10:56:12.270Z,14.35
2019-05-22T10:58:44.239Z,14.42
2019-05-22T11:01:16.712Z,14.58
2019-05-22T11:03:54.831Z,14.58
2019-05-22T11:06:28.008Z,14.81
2019-05-22T11:09:00.122Z,14.99
2019-05-22T11:11:32.828Z,14.94
2019-05-22T11:14:09.296Z,14.77
2019-05-22T11:16:39.845Z,14.71
2019-05-22T11:19:12.005Z,14.75
2019-05-22T11:21:43.819Z,14.68
2019-05-22T11:24:16.139Z,14.79
2019-05-22T11:26:50.832Z,14.66
2019-05-22T11:33:06.736Z,14.58
2019-05-22T11:35:40.153Z,14.28
2019-05-22T11:38:13.769Z,14.12
2019-05-22T11:41:17.460Z,14.05
2019-05-22T11:43:50.078Z,14.13
2019-05-22T11:46:22.376Z,14.27
2019-05-22T11:48:54.986Z,14.54
2019-05-22T11:51:26.131Z,14.54
2019-05-22T11:54:08.881Z,14.61
2019-05-22T11:56:31.754Z,14.58
2019-05-22T11:59:05.700Z,14.58
2019-05-22T12:01:49.364Z,14.63
2019-05-22T12:04:21.979Z,14.64
2019-05-22T12:06:57.226Z,14.58
2019-05-22T12:09:30.782Z,14.60
2019-05-22T12:12:03.611Z,14.65
2019-05-22T12:14:35.742Z,14.78
2019-05-22T12:17:09.345Z,14.62
2019-05-22T12:19:41.431Z,14.70
2019-05-22T12:22:13.386Z,14.87
2019-05-22T12:24:46.616Z,14.97
2019-05-22T12:27:20.009Z,15.01
2019-05-22T12:29:52.098Z,14.84
2019-05-22T12:32:23.511Z,14.78
2019-05-22T12:34:55.757Z,14.75
2019-05-22T12:37:28.010Z,14.61
2019-05-22T12:40:02.195Z,14.51
2019-05-22T12:42:35.737Z,14.42
2019-05-22T12:45:39.034Z,14.41
2019-05-22T12:48:12.259Z,14.36
2019-05-22T12:50:45.750Z,14.19
2019-05-22T12:53:18.456Z,14.14
2019-05-22T12:55:50.816Z,14.19
2019-05-22T12:58:24.725Z,14.20
2019-05-22T13:00:57.146Z,14.21
2019-05-22T13:03:30.613Z,14.36
2019-05-22T13:06:04.042Z,14.27
2019-05-22T13:08:37.512Z,14.16
2019-05-22T13:11:11.190Z,14.15
2019-05-22T13:13:43.254Z,14.07
2019-05-22T13:16:16.969Z,14.08
2019-05-22T13:18:51.639Z,14.03
2019-05-22T13:21:29.997Z,13.91
2019-05-22T13:24:15.366Z,13.90
2019-05-22T13:26:48.110Z,13.91
2019-05-22T13:29:21.566Z,13.88
2019-05-22T13:31:54.530Z,13.86
2019-05-22T13:34:29.590Z,14.08
2019-05-22T13:37:02.425Z,14.01
2019-05-22T13:39:35.238Z,14.14
2019-05-22T13:42:07.554Z,14.07
2019-05-22T13:44:40.818Z,14.00
2019-05-22T13:47:13.277Z,14.02
2019-05-22T13:49:46.516Z,13.90
2019-05-22T13:52:17.882Z,13.95
2019-05-22T13:54:51.198Z,13.87
2019-05-22T13:57:25.111Z,13.77
2019-05-22T13:59:57.194Z,13.72
2019-05-22T14:02:29.911Z,13.65
2019-05-22T14:05:02.495Z,13.58
2019-05-22T14:07:34.543Z,13.67
2019-05-22T14:10:07.292Z,13.63
2019-05-22T14:12:40.542Z,13.72
2019-05-22T14:15:13.943Z,13.69
2019-05-22T14:17:46.481Z,13.66
2019-05-22T14:20:23.310Z,13.71
2019-05-22T14:22:55.379Z,13.70
2019-05-22T14:25:28.217Z,13.75
2019-05-22T14:28:00.211Z,13.68
2019-05-22T14:30:32.504Z,13.66
2019-05-22T14:33:05.676Z,13.62
2019-05-22T14:35:48.534Z,13.50
2019-05-22T14:38:18.351Z,13.49
2019-05-22T14:40:50.839Z,13.51
2019-05-22T14:43:23.067Z,13.52
2019-05-22T14:45:56.302Z,13.46
2019-05-22T14:49:04.420Z,13.47
2019-05-22T14:51:44.823Z,13.44
2019-05-22T14:54:27.588Z,13.47
2019-05-22T14:57:01.730Z,13.40
2019-05-22T14:59:34.118Z,13.33
2019-05-22T15:02:08.382Z,13.42
2019-05-22T15:05:38.569Z,13.46
2019-05-22T15:08:13.601Z,13.42
2019-05-22T15:10:46.743Z,13.25
2019-05-22T15:13:19.374Z,13.26
2019-05-22T15:16:10.994Z,13.27
2019-05-22T15:18:56.731Z,13.21
2019-05-22T15:22:34.974Z,13.30
2019-05-22T15:25:12.333Z,13.26
2019-05-22T15:27:45.065Z,13.07
2019-05-22T15:30:18.974Z,13.08
2019-05-22T15:36:50.394Z,13.05
2019-05-22T15:39:27.164Z,13.04
2019-05-22T15:42:09.042Z,13.14
2019-05-22T15:44:47.034Z,13.06
2019-05-22T15:47:53.230Z,13.06
2019-05-22T15:50:26.259Z,12.98
2019-05-22T15:53:06.293Z,12.94
2019-05-22T15:55:54.691Z,12.90
2019-05-22T15:58:50.530Z,12.91
2019-05-22T16:01:36.932Z,12.88
2019-05-22T16:04:13.376Z,12.93
2019-05-22T16:06:50.266Z,12.97
2019-05-22T16:09:25.275Z,12.89
2019-05-22T16:11:58.407Z,12.98
2019-05-22T16:14:33.600Z,12.97
2019-05-22T16:17:08.910Z,13.00
2019-05-22T16:19:41.509Z,13.00
2019-05-22T16:22:13.213Z,13.03
2019-05-22T16:24:44.616Z,13.00
2019-05-22T16:27:18.540Z,13.00
2019-05-22T16:29:50.624Z,13.07
2019-05-22T16:32:26.693Z,12.99
2019-05-22T16:34:59.426Z,13.01
2019-05-22T16:37:32.420Z,12.92
2019-05-22T16:40:05.522Z,13.03
2019-05-22T16:42:39.096Z,13.00
2019-05-22T16:45:14.896Z,13.00
2019-05-22T16:47:49.023Z,12.98
2019-05-22T16:50:29.442Z,12.96
2019-05-22T16:53:05.814Z,12.97
2019-05-22T16:55:41.001Z,12.98
2019-05-22T16:58:14.160Z,12.94
2019-05-22T17:00:47.366Z,13.00
2019-05-22T17:03:22.437Z,12.98
2019-05-22T17:05:55.172Z,12.93
2019-05-22T17:08:31.616Z,12.93
2019-05-22T17:11:05.518Z,12.94
2019-05-22T17:13:37.685Z,12.90
2019-05-22T17:16:10.272Z,12.96
2019-05-22T17:18:47.790Z,12.96
2019-05-22T17:21:16.852Z,12.95
2019-05-22T17:23:50.017Z,12.93
2019-05-22T17:26:23.834Z,12.92
2019-05-22T17:28:57.917Z,12.96
2019-05-22T17:31:35.780Z,12.97
2019-05-22T17:34:30.572Z,12.95
2019-05-22T17:37:18.502Z,12.87
2019-05-22T17:39:50.992Z,12.91
2019-05-22T17:43:06.153Z,12.85
2019-05-22T17:45:37.561Z,12.77
2019-05-22T17:48:19.300Z,12.68
2019-05-22T17:50:53.420Z,12.71
2019-05-22T17:53:26.275Z,12.65
2019-05-22T17:55:59.163Z,12.63
2019-05-22T17:58:32.512Z,12.62
2019-05-22T18:01:07.579Z,12.63
2019-05-22T18:03:39.224Z,12.59
2019-05-22T18:06:11.087Z,12.62
2019-05-22T18:08:44.518Z,12.55
2019-05-22T18:11:16.789Z,12.49
2019-05-22T18:14:04.459Z,12.45
2019-05-22T18:16:38.675Z,12.47
2019-05-22T18:19:11.533Z,12.48
2019-05-22T18:21:43.905Z,12.42
2019-05-22T18:24:15.397Z,12.41
2019-05-22T18:26:47.623Z,12.35
2019-05-22T18:29:20.003Z,12.33
2019-05-22T18:31:52.222Z,12.37
2019-05-22T18:34:24.176Z,12.31
2019-05-22T18:36:56.488Z,12.47
2019-05-22T18:39:30.122Z,12.47
2019-05-22T18:42:01.739Z,12.39
2019-05-22T18:44:34.092Z,12.43
2019-05-22T18:47:06.293Z,12.46
2019-05-22T18:50:11.259Z,12.40
2019-05-22T18:52:39.972Z,12.33
2019-05-22T18:54:58.736Z,12.36
2019-05-22T18:57:36.023Z,12.40
2019-05-22T19:00:08.888Z,12.33
2019-05-22T19:02:43.995Z,12.32
2019-05-22T19:05:27.963Z,12.37
2019-05-22T19:08:00.900Z,12.32
2019-05-22T19:10:34.422Z,12.31
2019-05-22T19:13:07.222Z,12.28
2019-05-22T19:15:39.001Z,12.31
2019-05-22T19:18:11.248Z,12.30
2019-05-22T19:20:51.981Z,12.34
2019-05-22T19:23:30.282Z,12.29
2019-05-22T19:26:05.691Z,12.25
2019-05-22T19:28:43.439Z,12.27
2019-05-22T19:31:09.800Z,12.29
2019-05-22T19:33:49.900Z,12.31
2019-05-22T19:36:24.942Z,12.25
2019-05-22T19:39:04.004Z,12.28
2019-05-22T19:42:01.341Z,12.28
2019-05-22T19:44:29.084Z,12.31
2019-05-22T19:47:08.407Z,12.33
2019-05-22T19:49:46.153Z,12.33
2019-05-22T19:52:40.391Z,12.26
2019-05-22T19:55:11.447Z,12.17
2019-05-22T19:57:50.757Z,12.18
2019-05-22T20:00:31.784Z,12.23
2019-05-22T20:03:09.564Z,12.09
2019-05-22T20:05:41.138Z,12.09
2019-05-22T20:08:12.419Z,11.95
2019-05-22T20:10:44.455Z,11.96
2019-05-22T20:13:17.885Z,12.00
2019-05-22T20:15:49.959Z,11.94
2019-05-22T20:18:21.389Z,11.87
2019-05-22T20:20:53.763Z,11.84
2019-05-22T20:23:35.451Z,11.88
2019-05-22T20:25:59.068Z,11.94
2019-05-22T20:28:31.549Z,11.94
2019-05-22T20:31:04.159Z,11.89
2019-05-22T20:33:36.759Z,11.92
2019-05-22T20:36:12.616Z,11.84
2019-05-22T20:38:45.007Z,11.82
2019-05-22T20:41:17.249Z,11.82
2019-05-22T20:43:50.724Z,11.96
2019-05-22T20:46:23.908Z,11.88
2019-05-22T20:48:56.754Z,11.85
2019-05-22T20:51:31.187Z,11.92
2019-05-22T20:54:04.830Z,11.88
2019-05-22T20:56:38.035Z,11.88
2019-05-22T20:59:10.672Z,11.86
2019-05-22T21:01:42.966Z,11.89
2019-05-22T21:04:16.091Z,11.86
2019-05-22T21:07:00.537Z,11.91
2019-05-22T21:09:34.222Z,11.92
2019-05-22T21:12:06.852Z,11.94
2019-05-22T21:14:39.398Z,11.92
2019-05-22T21:17:10.734Z,11.86
2019-05-22T21:19:43.761Z,11.93
2019-05-22T21:22:19.995Z,11.91
2019-05-22T21:24:51.802Z,11.95
2019-05-22T21:27:23.694Z,11.97
2019-05-22T21:29:55.914Z,11.92
2019-05-22T21:32:28.512Z,11.94
2019-05-22T21:35:00.865Z,11.93
2019-05-22T21:37:34.247Z,11.95
2019-05-22T21:40:06.462Z,11.97
2019-05-22T21:42:41.948Z,11.91
2019-05-22T21:45:16.447Z,11.97
2019-05-22T21:47:47.738Z,11.98
2019-05-22T21:50:20.612Z,11.98
2019-05-22T21:52:53.336Z,11.96
2019-05-22T21:55:25.723Z,11.92
2019-05-22T21:57:58.141Z,12.04
2019-05-22T22:00:52.529Z,12.01
2019-05-22T22:03:29.926Z,12.02
2019-05-22T22:06:01.885Z,11.93
2019-05-22T22:08:34.496Z,11.89
2019-05-22T22:11:05.935Z,11.94
2019-05-22T22:13:39.925Z,11.86
2019-05-22T22:16:12.031Z,11.84
2019-05-22T22:18:44.029Z,11.87
2019-05-22T22:21:16.565Z,11.91
2019-05-22T22:23:48.570Z,11.84
2019-05-22T22:26:25.943Z,11.80
2019-05-22T22:28:55.438Z,11.83
2019-05-22T22:31:29.289Z,11.80
2019-05-22T22:34:10.462Z,11.78
2019-05-22T22:36:42.964Z,11.84
2019-05-22T22:39:18.173Z,11.79
2019-05-22T22:41:50.593Z,11.85
2019-05-22T22:44:22.561Z,11.88
2019-05-22T22:46:57.637Z,11.90
2019-05-22T22:49:30.372Z,11.84
2019-05-22T22:52:01.778Z,11.77
2019-05-22T22:54:34.738Z,11.72
2019-05-22T22:57:09.312Z,11.83
2019-05-22T22:59:41.353Z,11.77
2019-05-22T23:02:18.343Z,11.79
2019-05-22T23:04:52.006Z,11.79
2019-05-22T23:07:26.917Z,11.76
2019-05-22T23:10:01.988Z,11.77
2019-05-22T23:12:35.528Z,11.72
2019-05-22T23:15:09.932Z,11.77
2019-05-22T23:17:43.026Z,11.75
2019-05-22T23:20:13.634Z,11.77
2019-05-22T23:22:43.925Z,11.73
2019-05-22T23:25:17.259Z,11.70
2019-05-22T23:27:50.478Z,11.53
2019-05-22T23:30:22.950Z,11.53
2019-05-22T23:32:57.548Z,11.54
2019-05-22T23:35:31.408Z,11.53
2019-05-22T23:38:03.301Z,11.47
2019-05-22T23:40:37.694Z,11.43
2019-05-22T23:43:11.473Z,11.41
2019-05-22T23:45:43.405Z,11.46
2019-05-22T23:48:16.429Z,11.44
2019-05-22T23:50:49.666Z,11.46
2019-05-22T23:53:24.111Z,11.43
2019-05-22T23:55:56.964Z,11.45
2019-05-22T23:58:29.389Z,11.42
